sensor_id;sensor_type;location;lat;lon;timestamp;P1;durP1;ratioP1;P2;durP2;ratioP2
12373;SDS011;6251;51.762;8.660;2022-12-10T05:07:09;38.57;;;18.23;;
12373;SDS011;6251;51.762;8.660;2022-12-10T05:17:09;34.40;;;17.77;;
12373;SDS011;6251;51.762;8.660;2022-12-10T05:27:10;36.07;;;17.77;;
12373;SDS011;6251;51.762;8.660;2022-12-10T05:37:10;41.37;;;19.63;;
12373;SDS011;6251;51.762;8.660;2022-12-10T05:47:11;37.63;;;18.27;;
12373;SDS011;6251;51.762;8.660;2022-12-10T05:57:12;38.90;;;18.60;;
12373;SDS011;6251;51.762;8.660;2022-12-10T06:07:12;41.23;;;19.80;;
12373;SDS011;6251;51.762;8.660;2022-12-10T06:17:13;42.33;;;20.10;;
12373;SDS011;6251;51.762;8.660;2022-12-10T06:27:13;48.17;;;23.07;;
12373;SDS011;6251;51.762;8.660;2022-12-10T06:37:14;51.23;;;21.63;;
12373;SDS011;6251;51.762;8.660;2022-12-10T06:47:15;44.83;;;21.87;;
12373;SDS011;6251;51.762;8.660;2022-12-10T06:57:15;45.33;;;21.43;;
12373;SDS011;6251;51.762;8.660;2022-12-10T07:07:16;42.60;;;19.57;;
12373;SDS011;6251;51.762;8.660;2022-12-10T07:17:16;46.58;;;21.85;;
12373;SDS011;6251;51.762;8.660;2022-12-10T07:27:17;40.73;;;19.23;;
12373;SDS011;6251;51.762;8.660;2022-12-10T07:37:18;53.40;;;24.43;;
12373;SDS011;6251;51.762;8.660;2022-12-10T07:47:18;57.17;;;24.00;;
12373;SDS011;6251;51.762;8.660;2022-12-10T07:57:19;56.30;;;23.20;;
12373;SDS011;6251;51.762;8.660;2022-12-10T08:07:20;49.10;;;21.00;;
12373;SDS011;6251;51.762;8.660;2022-12-10T08:17:20;45.70;;;20.53;;
12373;SDS011;6251;51.762;8.660;2022-12-10T08:27:21;49.40;;;22.10;;
12373;SDS011;6251;51.762;8.660;2022-12-10T08:37:22;46.15;;;21.75;;
12373;SDS011;6251;51.762;8.660;2022-12-10T08:47:22;51.90;;;22.00;;
12373;SDS011;6251;51.762;8.660;2022-12-10T08:57:23;53.73;;;22.93;;
12373;SDS011;6251;51.762;8.660;2022-12-10T09:07:24;53.23;;;23.83;;
12373;SDS011;6251;51.762;8.660;2022-12-10T09:17:24;50.08;;;24.52;;
12373;SDS011;6251;51.762;8.660;2022-12-10T09:27:25;60.80;;;27.43;;
12373;SDS011;6251;51.762;8.660;2022-12-10T09:37:25;53.63;;;25.87;;
12373;SDS011;6251;51.762;8.660;2022-12-10T09:47:31;55.93;;;25.50;;
12373;SDS011;6251;51.762;8.660;2022-12-10T09:57:46;51.40;;;23.80;;
12373;SDS011;6251;51.762;8.660;2022-12-10T10:07:52;61.03;;;28.43;;
12373;SDS011;6251;51.762;8.660;2022-12-10T10:17:56;54.70;;;24.53;;
12373;SDS011;6251;51.762;8.660;2022-12-10T10:27:59;46.47;;;23.37;;
12373;SDS011;6251;51.762;8.660;2022-12-10T10:38:02;49.70;;;23.97;;
12373;SDS011;6251;51.762;8.660;2022-12-10T10:48:10;51.57;;;23.70;;
12373;SDS011;6251;51.762;8.660;2022-12-10T10:58:17;44.47;;;22.03;;
12373;SDS011;6251;51.762;8.660;2022-12-10T11:08:19;48.30;;;22.83;;
12373;SDS011;6251;51.762;8.660;2022-12-10T11:28:33;23.73;;;12.47;;
12373;SDS011;6251;51.762;8.660;2022-12-10T11:38:58;42.73;;;20.90;;
12373;SDS011;6251;51.762;8.660;2022-12-10T11:59:09;42.17;;;20.67;;
12373;SDS011;6251;51.762;8.660;2022-12-10T12:29:52;25.17;;;15.07;;
12373;SDS011;6251;51.762;8.660;2022-12-10T13:01:03;22.43;;;13.83;;
12373;SDS011;6251;51.762;8.660;2022-12-10T13:11:46;21.97;;;13.30;;
12373;SDS011;6251;51.762;8.660;2022-12-10T13:32:13;18.20;;;11.43;;
12373;SDS011;6251;51.762;8.660;2022-12-10T13:52:42;32.13;;;19.13;;
12373;SDS011;6251;51.762;8.660;2022-12-10T14:13:18;22.47;;;15.77;;
12373;SDS011;6251;51.762;8.660;2022-12-10T14:23:29;19.57;;;12.50;;
12373;SDS011;6251;51.762;8.660;2022-12-10T14:33:37;22.77;;;14.10;;
12373;SDS011;6251;51.762;8.660;2022-12-10T14:43:38;21.23;;;13.80;;
12373;SDS011;6251;51.762;8.660;2022-12-10T14:53:40;20.13;;;13.27;;
12373;SDS011;6251;51.762;8.660;2022-12-10T15:03:43;22.13;;;12.40;;
12373;SDS011;6251;51.762;8.660;2022-12-10T15:13:51;23.03;;;13.47;;
12373;SDS011;6251;51.762;8.660;2022-12-10T15:34:18;22.63;;;13.53;;
12373;SDS011;6251;51.762;8.660;2022-12-10T15:54:33;21.03;;;12.53;;
12373;SDS011;6251;51.762;8.660;2022-12-10T16:04:36;19.83;;;12.10;;
12373;SDS011;6251;51.762;8.660;2022-12-10T16:14:37;20.77;;;12.53;;
12373;SDS011;6251;51.762;8.660;2022-12-10T16:24:38;20.03;;;13.87;;
12373;SDS011;6251;51.762;8.660;2022-12-10T16:34:39;23.25;;;13.10;;
12373;SDS011;6251;51.762;8.660;2022-12-10T16:44:40;19.10;;;12.37;;
12373;SDS011;6251;51.762;8.660;2022-12-10T16:54:41;20.07;;;12.13;;
12373;SDS011;6251;51.762;8.660;2022-12-10T17:04:45;18.77;;;12.53;;
12373;SDS011;6251;51.762;8.660;2022-12-10T17:14:46;19.33;;;12.23;;
12373;SDS011;6251;51.762;8.660;2022-12-10T17:24:47;23.83;;;13.57;;
12373;SDS011;6251;51.762;8.660;2022-12-10T17:34:48;19.93;;;12.97;;
12373;SDS011;6251;51.762;8.660;2022-12-10T17:44:51;24.00;;;13.50;;
12373;SDS011;6251;51.762;8.660;2022-12-10T17:54:51;22.17;;;13.53;;
12373;SDS011;6251;51.762;8.660;2022-12-10T18:15:34;25.00;;;15.77;;
12373;SDS011;6251;51.762;8.660;2022-12-10T18:25:36;25.80;;;16.23;;
12373;SDS011;6251;51.762;8.660;2022-12-10T18:35:38;29.20;;;14.67;;
12373;SDS011;6251;51.762;8.660;2022-12-10T18:45:40;26.40;;;15.00;;
12373;SDS011;6251;51.762;8.660;2022-12-10T18:55:40;24.27;;;14.20;;
12373;SDS011;6251;51.762;8.660;2022-12-10T19:05:41;24.10;;;14.57;;
12373;SDS011;6251;51.762;8.660;2022-12-10T19:15:41;23.60;;;13.40;;
12373;SDS011;6251;51.762;8.660;2022-12-10T19:25:42;22.67;;;13.43;;
12373;SDS011;6251;51.762;8.660;2022-12-10T19:35:43;27.50;;;15.90;;
12373;SDS011;6251;51.762;8.660;2022-12-10T19:45:45;27.57;;;15.13;;
12373;SDS011;6251;51.762;8.660;2022-12-10T19:55:46;26.20;;;14.80;;
12373;SDS011;6251;51.762;8.660;2022-12-10T20:05:46;22.33;;;13.30;;
12373;SDS011;6251;51.762;8.660;2022-12-10T20:15:54;23.73;;;13.60;;
12373;SDS011;6251;51.762;8.660;2022-12-10T20:25:56;24.43;;;13.97;;
12373;SDS011;6251;51.762;8.660;2022-12-10T20:46:31;24.03;;;13.47;;
12373;SDS011;6251;51.762;8.660;2022-12-10T20:56:34;24.83;;;14.50;;
12373;SDS011;6251;51.762;8.660;2022-12-10T21:06:38;27.90;;;15.93;;
12373;SDS011;6251;51.762;8.660;2022-12-10T21:16:39;26.93;;;13.90;;
12373;SDS011;6251;51.762;8.660;2022-12-10T21:26:39;24.63;;;13.67;;
12373;SDS011;6251;51.762;8.660;2022-12-10T21:36:40;26.60;;;13.43;;
12373;SDS011;6251;51.762;8.660;2022-12-10T21:46:41;24.87;;;13.10;;
12373;SDS011;6251;51.762;8.660;2022-12-10T21:56:41;23.20;;;12.87;;
12373;SDS011;6251;51.762;8.660;2022-12-10T22:06:42;28.27;;;14.10;;
